Time;durP1;ratioP1;P1;durP2;ratioP2;P2;SDS_P1;SDS_P2;PMS_P1;PMS_P2;Temp;Humidity;BMP_temperature;BMP_pressure;BME280_temperature;BME280_humidity;BME280_pressure;Samples;Min_cycle;Max_cycle;Signal;HPM_P1;HPM_P2
2022/11/10 00:01:06;;;;;;;3.83;2.77;;;13.80;79.40;;;16.55;57.33;101328.84;5095692;28;20231;-55
2022/11/10 00:03:36;;;;;;;4.53;3.00;;;13.80;79.40;;;16.55;57.34;101342.97;5089961;28;20649;-56
2022/11/10 00:06:06;;;;;;;5.10;3.13;;;13.80;79.40;;;16.54;57.17;101340.50;5095919;28;20590;-55
2022/11/10 00:08:33;;;;;;;6.13;2.93;;;13.80;79.40;;;16.51;57.21;101341.72;5088098;28;20557;-56
2022/11/10 00:11:05;;;;;;;5.53;2.73;;;13.70;79.30;;;16.49;57.29;101350.88;5075348;28;20212;-54
2022/11/10 00:16:59;;;;;;;7.77;3.23;;;13.70;79.30;;;16.46;57.20;101353.91;5075478;28;20649;-56
2022/11/10 00:19:09;;;;;;;4.00;2.83;;;13.70;79.20;;;16.36;57.09;101356.13;5087926;28;20257;-57
2022/11/10 00:21:36;;;;;;;5.00;3.40;;;13.60;79.10;;;16.35;57.37;101362.47;5095411;28;20212;-54
2022/11/10 00:24:04;;;;;;;6.77;3.27;;;13.60;79.30;;;16.33;57.61;101362.63;5095840;28;20192;-56
2022/11/10 00:26:31;;;;;;;8.33;3.60;;;13.60;80.20;;;16.32;57.52;101370.81;5095754;28;20192;-56
2022/11/10 00:28:59;;;;;;;5.80;3.30;;;13.50;79.40;;;16.30;57.29;101375.50;5082845;28;20201;-57
2022/11/10 00:31:29;;;;;;;5.20;3.17;;;13.50;79.40;;;16.28;57.34;101375.72;5074801;28;20213;-54
2022/11/10 00:33:57;;;;;;;8.33;3.90;;;13.50;79.50;;;16.26;57.30;101375.91;5086291;28;20211;-57
2022/11/10 00:36:24;;;;;;;8.77;3.80;;;13.50;79.60;;;16.26;57.48;101377.72;5078504;28;20213;-57
2022/11/10 00:38:52;;;;;;;7.57;3.90;;;13.50;79.70;;;16.26;57.38;101378.56;5084723;28;20196;-57
2022/11/10 00:41:19;;;;;;;6.23;4.33;;;13.50;79.80;;;16.22;57.74;101385.28;5100988;28;20220;-55
2022/11/10 00:43:47;;;;;;;4.63;3.70;;;13.50;79.90;;;16.21;57.65;101388.94;5084248;28;20249;-55
2022/11/10 00:46:15;;;;;;;5.23;4.13;;;13.50;80.00;;;16.22;57.96;101385.28;5085379;28;20185;-55
2022/11/10 00:48:42;;;;;;;11.23;5.27;;;13.50;80.10;;;16.19;57.81;101385.66;5082951;28;20196;-56
2022/11/10 00:51:19;;;;;;;6.37;4.10;;;13.40;80.10;;;16.19;57.94;101390.16;5080347;28;20267;-55
2022/11/10 00:53:46;;;;;;;7.10;3.97;;;13.50;80.20;;;16.19;57.94;101390.97;5092712;28;20548;-53
2022/11/10 00:56:14;;;;;;;8.23;4.60;;;13.40;80.10;;;16.17;57.78;101385.03;5094099;28;20230;-55
2022/11/10 00:58:41;;;;;;;13.50;5.27;;;13.50;80.20;;;16.16;58.23;101391.34;5095341;28;20234;-57
2022/11/10 01:01:10;;;;;;;9.90;4.90;;;13.40;80.40;;;16.15;58.19;101395.03;5094345;28;20474;-55
2022/11/10 01:03:39;;;;;;;6.97;5.10;;;13.40;80.40;;;16.15;58.31;101399.53;5094623;28;20666;-56
2022/11/10 01:06:07;;;;;;;9.73;5.37;;;13.40;80.40;;;16.14;57.94;101403.22;5115223;28;20192;-56
2022/11/10 01:08:35;;;;;;;10.37;4.67;;;13.40;80.50;;;16.13;58.33;101390.94;5096991;28;20200;-55
2022/11/10 01:11:04;;;;;;;6.57;4.13;;;13.40;80.50;;;16.12;58.20;101397.25;5094343;28;20219;-56
2022/11/10 01:13:32;;;;;;;11.03;5.30;;;13.40;80.60;;;16.11;58.18;101401.78;5078556;28;20201;-56
2022/11/10 01:16:03;;;;;;;9.07;5.33;;;13.30;80.70;;;16.09;58.16;101408.28;5074711;28;20189;-55
2022/11/10 01:18:30;;;;;;;5.63;4.27;;;13.30;80.70;;;16.08;58.48;101410.13;5094664;28;20211;-56
2022/11/10 01:20:59;;;;;;;9.17;4.43;;;13.30;80.60;;;16.07;58.25;101413.78;5095295;28;20208;-57
2022/11/10 01:23:27;;;;;;;7.43;4.60;;;13.30;80.70;;;16.07;58.07;101421.75;5079262;28;20193;-56
2022/11/10 01:25:56;;;;;;;10.20;5.23;;;13.30;80.80;;;16.05;58.32;101426.44;5075365;28;20216;-54
2022/11/10 01:28:24;;;;;;;8.43;4.73;;;13.30;80.90;;;16.04;58.34;101429.28;5074046;28;20197;-55
2022/11/10 01:30:56;;;;;;;6.87;5.03;;;13.30;81.00;;;16.01;58.34;101430.50;5073920;28;20289;-55
2022/11/10 01:33:23;;;;;;;6.00;4.63;;;13.30;81.00;;;16.01;58.50;101441.13;5076515;28;20699;-57
2022/11/10 01:35:51;;;;;;;8.43;4.77;;;13.20;81.00;;;16.01;58.45;101441.13;5074095;28;20246;-56
2022/11/10 01:38:19;;;;;;;7.80;4.50;;;13.20;81.00;;;15.98;58.30;101441.50;5073876;28;20661;-55
2022/11/10 01:40:47;;;;;;;8.07;3.93;;;13.20;81.00;;;15.97;58.71;101450.50;5078247;28;20532;-54
2022/11/10 01:43:15;;;;;;;10.13;5.03;;;13.20;81.30;;;15.97;58.67;101455.81;5081353;28;20309;-55
2022/11/10 01:45:50;;;;;;;9.13;4.30;;;13.20;81.40;;;15.95;58.21;101452.50;5073643;28;20197;-56
2022/11/10 01:48:31;;;;;;;8.00;4.73;;;13.20;81.40;;;15.94;58.76;101461.47;5085534;28;20269;-55
2022/11/10 01:51:06;;;;;;;9.40;4.67;;;13.20;81.40;;;15.92;58.93;101452.91;5082883;28;20209;-54
2022/11/10 01:53:42;;;;;;;8.73;4.30;;;13.20;81.40;;;15.91;58.87;101453.06;5088800;28;20196;-56
2022/11/10 01:56:14;;;;;;;11.83;5.40;;;13.10;81.20;;;15.86;58.94;101453.66;5093823;28;20605;-54
2022/11/10 01:58:50;;;;;;;10.73;4.63;;;13.10;81.40;;;15.75;59.62;101472.75;5092291;28;20196;-53
2022/11/10 02:01:17;;;;;;;8.47;4.87;;;13.10;81.40;;;15.75;59.36;101464.78;5093329;28;20228;-55
2022/11/10 02:03:49;;;;;;;6.03;4.57;;;13.10;81.30;;;15.77;59.37;101465.41;5076125;28;20189;-54
2022/11/10 02:06:19;;;;;;;8.53;4.03;;;13.10;81.70;;;15.80;59.32;101464.22;5074690;28;20695;-54
2022/11/10 02:08:50;;;;;;;9.23;4.50;;;13.10;81.60;;;15.80;59.17;101469.53;5073764;28;20197;-54
2022/11/10 02:11:17;;;;;;;10.70;4.60;;;13.10;81.60;;;15.78;59.62;101472.38;5073268;28;20209;-56
2022/11/10 02:13:44;;;;;;;10.93;4.50;;;13.10;81.80;;;15.78;59.39;101475.03;5089674;28;20196;-56
2022/11/10 02:16:12;;;;;;;7.90;3.87;;;13.10;81.80;;;15.78;59.32;101476.84;5081740;28;20193;-57
2022/11/10 02:18:39;;;;;;;9.30;4.53;;;13.10;81.80;;;15.76;59.43;101477.03;5087917;28;20196;-57
2022/11/10 02:21:08;;;;;;;8.33;4.53;;;13.10;81.60;;;15.77;59.44;101481.34;5093236;28;20216;-54
2022/11/10 02:23:48;;;;;;;7.40;4.23;;;13.10;81.80;;;15.76;59.29;101486.84;5079544;28;20197;-56
2022/11/10 02:26:19;;;;;;;7.83;3.97;;;13.10;81.80;;;15.79;59.31;101484.63;5073612;28;20630;-55
2022/11/10 02:28:46;;;;;;;9.00;4.30;;;13.10;81.80;;;15.79;59.28;101492.59;5073221;28;20552;-57
2022/11/10 02:31:13;;;;;;;11.60;4.50;;;13.00;81.70;;;15.77;59.39;101497.28;5072973;28;20573;-56
2022/11/10 02:33:40;;;;;;;8.27;4.97;;;13.10;81.70;;;15.72;59.47;101490.88;5088881;28;20250;-56
2022/11/10 02:36:10;;;;;;;8.53;4.70;;;13.10;81.70;;;15.68;59.58;101493.09;5093717;28;20217;-56
2022/11/10 02:38:38;;;;;;;13.30;5.30;;;13.10;81.60;;;15.63;59.87;101494.66;5092203;28;20184;-55
2022/11/10 02:41:05;;;;;;;11.03;4.80;;;13.00;81.60;;;15.58;59.86;101513.81;5073031;28;20294;-56
2022/11/10 02:43:32;;;;;;;7.63;4.60;;;13.00;81.70;;;15.59;59.87;101507.50;5076110;28;20250;-56
2022/11/10 02:45:59;;;;;;;13.57;5.50;;;13.00;81.60;;;15.57;59.83;101510.31;5073257;28;20189;-55
2022/11/10 02:48:26;;;;;;;8.23;4.40;;;13.00;81.70;;;15.54;59.64;101515.22;5085876;28;20197;-56
2022/11/10 02:50:53;;;;;;;13.67;5.53;;;12.90;81.50;;;15.51;59.87;101507.59;5092976;28;20197;-55
2022/11/10 02:53:22;;;;;;;9.87;5.07;;;12.90;81.80;;;15.44;60.18;101506.69;5077202;28;20266;-54
2022/11/10 02:55:49;;;;;;;10.67;4.97;;;12.90;82.00;;;15.32;60.53;101510.81;5079162;28;20210;-55
2022/11/10 02:58:16;;;;;;;12.83;5.87;;;12.80;82.10;;;15.33;60.54;101521.25;5093165;28;20208;-55
2022/11/10 03:00:43;;;;;;;10.80;5.30;;;12.80;82.30;;;15.31;60.55;101511.81;5080620;28;20201;-54
2022/11/10 03:03:10;;;;;;;7.90;5.07;;;12.80;82.50;;;15.29;60.61;101513.84;5084430;28;20196;-56
2022/11/10 03:05:37;;;;;;;10.27;5.63;;;12.80;82.40;;;15.18;60.73;101506.38;5093447;28;20258;-54
2022/11/10 03:08:04;;;;;;;11.60;4.67;;;12.70;82.60;;;15.17;60.99;101510.84;5093526;28;20181;-56
2022/11/10 03:10:33;;;;;;;7.20;4.43;;;12.70;82.60;;;15.23;60.75;101515.44;5093469;28;20645;-54
2022/11/10 03:13:01;;;;;;;6.73;4.03;;;12.70;82.80;;;15.28;60.37;101520.19;5079316;28;20257;-55
2022/11/10 03:15:29;;;;;;;8.80;4.07;;;12.70;82.70;;;15.34;60.76;101532.69;5074557;28;20193;-57
2022/11/10 03:18:01;;;;;;;10.90;4.83;;;12.70;82.90;;;15.36;60.60;101533.31;5083340;28;20259;-56
2022/11/10 03:20:28;;;;;;;10.93;5.20;;;12.70;82.90;;;15.37;60.22;101548.22;5076414;28;20185;-56
2022/11/10 03:23:00;;;;;;;8.67;4.03;;;12.60;82.60;;;15.31;60.35;101556.91;5077435;28;20212;-56
2022/11/10 03:25:27;;;;;;;7.57;4.80;;;12.70;82.70;;;15.32;60.10;101561.22;5095231;28;20234;-54
2022/11/10 03:27:56;;;;;;;8.77;4.07;;;12.70;82.70;;;15.35;60.39;101566.16;5096466;28;20192;-55
2022/11/10 03:30:23;;;;;;;8.77;4.03;;;12.70;82.80;;;15.39;60.01;101562.13;5076165;28;20189;-54
2022/11/10 03:32:50;;;;;;;13.33;4.53;;;12.60;82.80;;;15.42;60.59;101564.41;5084340;28;20216;-55
2022/11/10 03:35:17;;;;;;;11.33;4.27;;;12.70;83.20;;;15.47;60.52;101570.84;5078042;28;20198;-54
2022/11/10 03:37:44;;;;;;;7.90;4.00;;;12.70;83.10;;;15.51;60.13;101573.94;5076510;28;20255;-56
2022/11/10 03:40:11;;;;;;;11.83;5.33;;;12.70;82.80;;;15.38;60.20;101566.59;5076038;28;20189;-56
2022/11/10 03:42:41;;;;;;;11.63;5.60;;;12.70;82.50;;;15.20;60.76;101568.84;5088669;28;20209;-56
2022/11/10 03:45:12;;;;;;;10.03;5.23;;;12.70;82.60;;;15.16;60.70;101561.44;5080523;28;20641;-54
2022/11/10 03:47:39;;;;;;;13.03;4.83;;;12.70;82.60;;;15.13;60.68;101557.31;5090522;28;20219;-56
2022/11/10 03:50:07;;;;;;;12.27;5.90;;;12.60;82.50;;;15.11;60.89;101569.13;5076468;28;20520;-56
2022/11/10 03:52:37;;;;;;;9.33;4.93;;;12.60;82.70;;;15.13;60.73;101577.69;5084113;28;20254;-55
2022/11/10 03:55:05;;;;;;;10.30;5.27;;;12.60;83.00;;;15.16;60.98;101572.88;5095455;28;20184;-56
2022/11/10 03:57:33;;;;;;;10.07;5.53;;;12.60;83.30;;;15.15;60.78;101591.59;5095897;28;20739;-55
2022/11/10 04:00:00;;;;;;;8.00;4.93;;;12.60;83.20;;;15.18;61.21;101580.63;5092423;28;20192;-55
2022/11/10 04:02:28;;;;;;;10.67;5.40;;;12.60;83.40;;;15.20;60.89;101586.56;5076817;28;20221;-53
2022/11/10 04:10:26;;;;;;;10.67;5.00;;;12.60;82.90;;;15.20;60.71;101586.56;5075380;28;20580;-53
2022/11/10 04:15:41;;;;;;;9.97;4.83;;;12.60;82.80;;;15.12;60.92;101599.94;5075649;28;20259;-55
2022/11/10 04:18:23;;;;;;;9.63;4.80;;;12.60;82.80;;;15.09;60.81;101614.38;5086114;28;20274;-56
2022/11/10 04:20:52;;;;;;;11.47;4.87;;;12.60;83.00;;;15.11;61.26;101616.84;5094666;28;20173;-56
2022/11/10 04:23:26;;;;;;;10.13;5.97;;;12.60;83.30;;;15.14;60.86;101613.84;5095116;28;20203;-56
2022/11/10 04:28:47;;;;;;;13.20;5.63;;;12.50;83.10;;;15.10;60.86;101625.78;5078104;28;20193;-54
2022/11/10 04:31:16;;;;;;;19.67;6.57;;;12.50;83.00;;;15.08;61.03;101630.47;5095095;28;20606;-56
2022/11/10 04:33:45;;;;;;;12.87;5.80;;;12.50;83.20;;;15.06;61.08;101635.13;5078232;28;20197;-54
2022/11/10 04:36:15;;;;;;;9.80;5.03;;;12.50;83.10;;;15.06;60.78;101645.72;5075110;28;20201;-54
2022/11/10 04:38:43;;;;;;;12.77;5.63;;;12.50;83.00;;;15.10;60.69;101652.31;5075044;28;20588;-55
2022/11/10 04:41:10;;;;;;;10.97;5.83;;;12.50;83.10;;;15.10;60.99;101652.31;5077696;28;20255;-56
2022/11/10 04:43:39;;;;;;;12.17;4.70;;;12.50;83.30;;;15.10;60.72;101662.91;5085446;28;20592;-54
2022/11/10 04:46:17;;;;;;;10.37;5.60;;;12.50;83.20;;;15.11;60.59;101661.91;5075225;28;20612;-55
2022/11/10 04:48:45;;;;;;;7.07;4.63;;;12.50;83.20;;;15.14;60.73;101664.22;5090338;28;20189;-54
2022/11/10 04:51:13;;;;;;;15.93;6.80;;;12.50;83.10;;;15.12;60.53;101671.53;5094748;28;20584;-56
2022/11/10 04:53:40;;;;;;;10.47;5.17;;;12.50;83.30;;;15.13;60.81;101673.16;5078952;28;20271;-53
2022/11/10 04:56:13;;;;;;;10.33;5.37;;;12.40;83.30;;;15.13;60.87;101678.47;5085600;28;20204;-53
2022/11/10 04:58:40;;;;;;;8.03;5.00;;;12.50;83.50;;;15.17;60.46;101674.44;5085456;28;20561;-57
2022/11/10 05:01:10;;;;;;;10.17;4.90;;;12.50;83.20;;;15.20;60.71;101668.78;5074418;28;20213;-55
2022/11/10 05:03:38;;;;;;;10.17;4.97;;;12.50;83.40;;;15.20;60.68;101674.09;5083857;28;20219;-55
2022/11/10 05:06:07;;;;;;;14.30;5.90;;;12.50;83.10;;;15.18;60.27;101676.09;5095189;28;20555;-57
2022/11/10 05:08:34;;;;;;;12.73;5.50;;;12.40;83.00;;;15.14;60.75;101672.19;5094915;28;20578;-55
2022/11/10 05:11:01;;;;;;;11.40;5.70;;;12.50;83.10;;;15.12;60.57;101671.53;5092468;28;20221;-56
2022/11/10 05:13:29;;;;;;;10.20;5.50;;;12.50;83.00;;;15.11;60.60;101669.88;5088026;28;20540;-56
2022/11/10 05:15:56;;;;;;;14.30;6.93;;;12.50;82.90;;;15.10;60.80;101658.44;5094785;28;20196;-53
2022/11/10 05:18:24;;;;;;;9.73;5.00;;;12.40;83.10;;;15.06;61.15;101657.16;5081827;28;20731;-55
2022/11/10 05:20:52;;;;;;;10.00;6.13;;;12.40;83.20;;;15.10;60.95;101668.22;5073818;28;20193;-56
2022/11/10 05:23:39;;;;;;;11.27;6.27;;;12.50;83.30;;;15.12;60.86;101674.19;5080795;28;20193;-55
2022/11/10 05:26:08;;;;;;;11.30;6.40;;;12.40;83.20;;;15.13;60.62;101681.97;5089627;28;20262;-54
2022/11/10 05:28:36;;;;;;;14.50;7.20;;;12.40;83.20;;;15.16;60.63;101678.94;5073657;28;20189;-57
2022/11/10 05:31:03;;;;;;;11.23;6.47;;;12.40;83.30;;;15.19;60.36;101691.03;5073582;28;20212;-56
2022/11/10 05:33:32;;;;;;;18.17;6.87;;;12.40;83.70;;;15.22;60.57;101690.66;5087522;28;20249;-56
2022/11/10 05:35:59;;;;;;;11.10;7.33;;;12.40;83.40;;;15.22;60.38;101688.00;5093804;28;20181;-56
2022/11/10 05:38:28;;;;;;;15.23;8.80;;;12.50;83.80;;;15.19;60.57;101691.03;5078398;28;20213;-55
2022/11/10 05:40:55;;;;;;;13.57;7.97;;;12.40;83.70;;;15.14;60.92;101693.41;5080393;28;20219;-54
2022/11/10 05:43:23;;;;;;;16.37;8.97;;;12.40;83.70;;;15.15;61.03;101687.06;5081944;28;20529;-55
2022/11/10 05:45:50;;;;;;;16.00;8.87;;;12.40;83.70;;;15.16;60.83;101678.13;5088710;28;20201;-56
2022/11/10 05:48:17;;;;;;;13.40;8.70;;;12.40;83.80;;;15.13;61.32;101689.06;5094932;28;20200;-55
2022/11/10 05:50:44;;;;;;;14.53;8.67;;;12.50;84.00;;;15.16;60.84;101688.72;5093612;28;20245;-56
2022/11/10 05:53:12;;;;;;;12.53;8.20;;;12.50;84.00;;;15.20;61.09;101695.31;5083740;28;20230;-54
2022/11/10 05:55:40;;;;;;;16.07;9.40;;;12.50;84.20;;;15.23;60.83;101701.09;5092008;28;20254;-57
2022/11/10 05:58:08;;;;;;;15.50;9.50;;;12.50;84.10;;;15.23;61.14;101710.88;5072817;28;20209;-57
2022/11/10 06:00:35;;;;;;;14.77;9.80;;;12.50;84.10;;;15.23;61.14;101709.03;5072999;28;20530;-56
2022/11/10 06:03:05;;;;;;;16.53;9.53;;;12.50;84.10;;;15.25;61.23;101730.06;5078546;28;20193;-56
2022/11/10 06:05:34;;;;;;;14.73;9.77;;;12.50;84.20;;;15.30;61.06;101727.72;5091614;28;20197;-56
2022/11/10 06:08:04;;;;;;;12.07;8.17;;;12.50;84.20;;;15.36;61.23;101737.59;5093360;28;20246;-57
2022/11/10 06:10:32;;;;;;;14.47;9.13;;;12.60;84.50;;;15.38;60.93;101740.91;5089042;28;20193;-56
2022/11/10 06:13:02;;;;;;;14.03;10.17;;;12.60;84.50;;;15.43;61.10;101741.16;5073641;28;20193;-56
2022/11/10 06:15:29;;;;;;;9.33;8.17;;;12.70;84.50;;;15.52;60.88;101740.13;5073140;28;20654;-57
2022/11/10 06:17:57;;;;;;;16.23;10.20;;;12.70;84.50;;;15.59;61.12;101754.31;5073378;28;20205;-56
2022/11/10 06:20:24;;;;;;;15.03;10.30;;;12.70;84.60;;;15.51;60.81;101763.19;5085161;28;20262;-55
2022/11/10 06:23:01;;;;;;;15.70;9.63;;;12.80;84.20;;;15.54;60.83;101762.00;5092675;28;20223;-55
2022/11/10 06:25:29;;;;;;;14.90;9.77;;;12.80;84.20;;;15.62;60.78;101769.84;5085640;28;20583;-53
2022/11/10 06:27:57;;;;;;;12.63;10.13;;;12.80;84.10;;;15.69;60.72;101770.78;5088601;28;20588;-56
2022/11/10 06:30:31;;;;;;;22.63;11.63;;;12.80;84.20;;;15.70;60.72;101772.44;5092359;28;20574;-58
2022/11/10 06:32:58;;;;;;;15.83;10.47;;;12.90;84.20;;;15.76;60.57;101786.81;5087799;28;20211;-54
2022/11/10 06:35:26;;;;;;;14.33;9.57;;;12.90;84.30;;;15.80;60.38;101788.09;5093021;28;20719;-56
2022/11/10 06:38:00;;;;;;;16.67;9.20;;;12.90;84.20;;;15.85;60.16;101783.91;5093416;28;20216;-57
2022/11/10 06:40:28;;;;;;;16.23;11.80;;;13.00;84.40;;;15.84;60.45;101778.75;5082922;28;20189;-58
2022/11/10 06:42:55;;;;;;;16.37;11.80;;;13.00;84.20;;;15.83;60.72;101790.38;5085053;28;20722;-54
2022/11/10 06:45:23;;;;;;;13.83;9.60;;;13.00;84.10;;;15.82;60.87;101792.22;5093746;28;20332;-55
2022/11/10 06:48:00;;;;;;;16.23;10.60;;;13.10;84.10;;;15.86;60.71;101788.19;5088493;28;20201;-57
2022/11/10 06:50:27;;;;;;;13.70;9.47;;;13.10;84.00;;;15.91;60.68;101791.09;5074156;28;20184;-57
2022/11/10 06:52:55;;;;;;;13.53;9.33;;;13.10;84.00;;;15.98;60.12;101797.34;5075216;28;20285;-56
2022/11/10 06:55:22;;;;;;;16.60;10.87;;;13.10;84.10;;;15.99;60.33;101801.66;5089598;28;20265;-56
2022/11/10 06:57:49;;;;;;;21.10;10.70;;;13.10;83.90;;;16.03;59.92;101808.22;5096625;28;20222;-55
2022/11/10 07:00:17;;;;;;;17.17;10.70;;;13.20;84.00;;;15.99;60.38;101819.41;5096697;28;20602;-55
2022/11/10 07:02:44;;;;;;;19.30;11.57;;;13.20;84.00;;;16.03;60.10;101824.16;5093109;28;20275;-55
2022/11/10 07:05:14;;;;;;;14.43;11.43;;;13.20;83.80;;;15.99;60.46;101830.03;5096730;28;20189;-56
2022/11/10 07:07:41;;;;;;;19.47;11.50;;;13.30;83.90;;;16.02;60.38;101827.81;5095918;28;20202;-56
2022/11/10 07:10:08;;;;;;;14.20;9.77;;;13.30;83.80;;;16.08;60.48;101836.91;5078185;28;20193;-57
2022/11/10 07:12:35;;;;;;;16.93;10.73;;;13.30;83.70;;;16.16;60.17;101850.09;5084404;28;20510;-55
2022/11/10 07:15:04;;;;;;;16.47;11.17;;;13.40;83.90;;;16.19;59.99;101847.88;5094079;28;20241;-57
2022/11/10 07:17:31;;;;;;;20.67;11.60;;;13.40;83.80;;;16.17;59.74;101847.25;5081593;28;20197;-56
2022/11/10 07:19:58;;;;;;;16.97;9.37;;;13.40;83.30;;;16.19;60.16;101850.53;5096534;28;20219;-56
2022/11/10 07:22:37;;;;;;;15.40;11.47;;;13.40;83.30;;;16.19;59.67;101858.50;5091086;28;20265;-58
2022/11/10 07:25:05;;;;;;;13.83;10.13;;;13.50;83.40;;;16.27;59.73;101861.09;5082243;28;20254;-55
2022/11/10 07:27:32;;;;;;;15.07;9.83;;;13.50;83.40;;;16.33;59.64;101872.00;5096725;28;20218;-55
2022/11/10 07:29:59;;;;;;;15.67;11.57;;;13.50;83.10;;;16.35;59.46;101877.94;5086069;28;20193;-56
2022/11/10 07:32:26;;;;;;;17.00;10.13;;;13.50;83.00;;;16.39;59.46;101879.22;5076094;28;20236;-55
2022/11/10 07:34:53;;;;;;;15.27;9.70;;;13.60;83.00;;;16.44;59.51;101887.47;5075773;28;20197;-56
2022/11/10 07:37:20;;;;;;;19.23;10.13;;;13.60;83.20;;;16.51;59.56;101904.31;5080143;28;20592;-55
2022/11/10 07:39:49;;;;;;;11.73;9.83;;;13.60;83.30;;;16.58;59.46;101913.22;5075891;28;20209;-55
2022/11/10 07:42:15;;;;;;;17.73;12.43;;;13.60;83.10;;;16.59;59.08;101917.56;5099168;28;20242;-55
2022/11/10 07:44:43;;;;;;;12.73;9.77;;;13.70;82.90;;;16.61;59.20;101926.16;5081163;28;20200;-56
2022/11/10 07:47:10;;;;;;;18.30;11.00;;;13.70;82.70;;;16.60;59.18;101932.47;5078384;28;20247;-54
2022/11/10 07:49:37;;;;;;;16.50;10.00;;;13.70;82.40;;;16.56;59.27;101945.31;5095839;28;20229;-54
2022/11/10 07:52:04;;;;;;;19.27;9.93;;;13.80;82.30;;;16.62;59.01;101943.75;5091183;28;20277;-54
2022/11/10 07:54:31;;;;;;;15.03;9.23;;;13.80;82.40;;;16.68;59.04;101948.34;5075482;28;20523;-57
2022/11/10 07:56:59;;;;;;;18.10;9.33;;;13.90;82.40;;;16.75;58.57;101946.59;5074555;28;20193;-56
2022/11/10 07:59:27;;;;;;;14.03;9.77;;;13.90;82.30;;;16.79;58.69;101947.88;5075210;28;20209;-55
2022/11/10 08:01:53;;;;;;;16.33;11.57;;;13.90;82.10;;;16.76;58.63;101950.88;5074663;28;20290;-55
2022/11/10 08:04:20;;;;;;;17.07;10.90;;;13.90;81.90;;;16.72;58.47;101941.63;5095372;28;20219;-57
2022/11/10 08:06:47;;;;;;;10.30;8.00;;;13.90;81.80;;;16.77;58.80;101933.94;5095305;28;20250;-57
2022/11/10 08:09:15;;;;;;;18.10;10.63;;;13.90;82.00;;;16.73;58.96;101930.00;5096292;28;20185;-56
2022/11/10 08:11:42;;;;;;;15.70;9.83;;;13.90;81.80;;;16.72;58.69;101925.69;5095054;28;20291;-59
2022/11/10 08:14:10;;;;;;;22.47;10.57;;;14.00;81.80;;;16.68;58.54;101927.06;5075680;28;20255;-57
2022/11/10 08:16:37;;;;;;;15.70;10.83;;;13.90;81.70;;;16.62;59.16;101927.78;5075635;28;20580;-57
2022/11/10 08:19:04;;;;;;;15.73;9.70;;;13.90;81.90;;;16.65;59.29;101935.41;5074979;28;20212;-55
2022/11/10 08:21:31;;;;;;;18.50;9.83;;;14.00;82.10;;;16.79;59.15;101942.53;5075768;28;20209;-57
2022/11/10 08:23:58;;;;;;;18.13;10.73;;;14.00;82.40;;;16.91;58.49;101935.75;5075149;28;20592;-56
2022/11/10 08:26:25;;;;;;;15.13;9.73;;;14.00;82.10;;;17.00;58.33;101936.47;5075608;28;20189;-56
2022/11/10 08:28:52;;;;;;;16.80;10.33;;;14.10;82.00;;;17.02;58.01;101935.25;5075822;28;20193;-55
2022/11/10 08:31:21;;;;;;;13.90;9.27;;;14.10;81.60;;;17.04;57.96;101943.91;5079823;28;20212;-55
2022/11/10 08:33:48;;;;;;;19.93;10.33;;;14.20;81.50;;;17.05;58.20;101953.50;5087658;28;20212;-56
2022/11/10 08:36:15;;;;;;;12.17;8.83;;;14.30;81.40;;;17.12;58.07;101967.72;5095097;28;20200;-56
2022/11/10 08:38:45;;;;;;;15.67;9.53;;;14.30;81.50;;;17.17;57.84;101962.66;5085518;28;20225;-56
2022/11/10 08:41:12;;;;;;;14.70;9.87;;;14.30;81.00;;;17.27;57.79;101968.50;5087126;28;20237;-54
2022/11/10 08:43:39;;;;;;;18.37;9.10;;;14.40;80.90;;;17.34;57.50;101966.75;5115940;28;20656;-55
2022/11/10 08:46:06;;;;;;;20.87;10.00;;;14.50;81.00;;;17.43;57.08;101970.94;5115376;28;20291;-54
2022/11/10 08:48:34;;;;;;;13.70;9.33;;;14.50;80.50;;;17.50;56.98;101971.00;5100899;28;20280;-56
2022/11/10 08:51:01;;;;;;;18.00;9.20;;;14.60;80.30;;;17.48;56.73;101957.06;5081801;28;20274;-57
2022/11/10 08:53:30;;;;;;;13.57;9.40;;;14.70;79.80;;;17.40;56.48;101960.66;5079427;28;20607;-57
2022/11/10 08:55:58;;;;;;;14.47;9.07;;;14.60;79.30;;;17.30;57.08;101967.31;5093261;28;20196;-54
2022/11/10 08:58:26;;;;;;;14.17;9.27;;;14.60;79.20;;;17.38;56.83;101983.97;5094887;28;20196;-57
2022/11/10 09:00:53;;;;;;;15.20;7.97;;;14.70;79.50;;;17.50;56.87;101986.97;5094544;28;20201;-54
2022/11/10 09:03:23;;;;;;;20.07;9.40;;;14.70;79.60;;;17.52;56.66;101990.28;5089181;28;20641;-54
2022/11/10 09:05:56;;;;;;;15.23;8.90;;;14.70;79.30;;;17.62;56.37;101997.97;5094668;28;20303;-54
2022/11/10 09:08:25;;;;;;;11.80;8.43;;;14.80;79.40;;;17.74;55.98;101983.97;5094294;28;20660;-55
2022/11/10 09:10:52;;;;;;;16.03;9.10;;;14.80;79.00;;;17.80;55.98;101993.03;5085663;28;20290;-55
2022/11/10 09:13:22;;;;;;;12.27;7.90;;;14.90;78.80;;;17.84;55.51;101983.66;5074411;28;20197;-54
2022/11/10 09:15:58;;;;;;;15.17;8.67;;;14.90;78.20;;;17.89;56.02;101986.56;5074838;28;20235;-56
2022/11/10 09:18:25;;;;;;;16.10;8.67;;;15.00;78.40;;;18.01;55.54;101990.38;5074206;28;20193;-57
2022/11/10 09:20:54;;;;;;;16.93;10.33;;;15.10;78.30;;;18.05;54.93;101980.97;5074173;28;20208;-57
2022/11/10 09:23:23;;;;;;;13.20;8.67;;;15.10;77.70;;;18.07;54.69;101989.59;5094649;28;20250;-55
2022/11/10 09:25:55;;;;;;;16.70;10.43;;;15.20;77.20;;;18.03;54.77;101980.34;5090462;28;20196;-58
2022/11/10 09:28:23;;;;;;;13.63;8.90;;;15.30;76.90;;;18.13;55.03;101994.16;5091290;28;20197;-56
2022/11/10 09:30:51;;;;;;;14.97;7.13;;;15.40;77.20;;;18.42;54.69;101993.97;5092386;28;20733;-57
2022/11/10 09:33:18;;;;;;;14.93;8.20;;;15.50;77.20;;;18.50;53.93;101993.00;5082783;28;20563;-54
2022/11/10 09:35:46;;;;;;;11.20;7.77;;;15.60;76.20;;;18.43;53.52;102005.44;5087005;28;20207;-56
2022/11/10 09:38:16;;;;;;;12.90;7.37;;;15.70;75.40;;;18.43;53.95;102014.28;5089822;28;20255;-56
2022/11/10 09:41:01;;;;;;;16.97;7.57;;;15.70;75.20;;;18.51;53.51;102011.50;5080528;28;20307;-54
2022/11/10 09:43:40;;;;;;;16.13;8.00;;;15.80;75.10;;;18.60;52.71;102022.81;5076754;28;20188;-54
2022/11/10 09:46:15;;;;;;;12.93;6.40;;;15.80;74.70;;;18.67;53.21;102024.53;5085492;28;20230;-59
2022/11/10 09:48:50;;;;;;;12.27;7.07;;;15.90;74.80;;;18.74;53.29;102028.03;5084321;28;20192;-58
2022/11/10 09:51:24;;;;;;;16.77;7.83;;;16.00;74.80;;;18.81;52.39;102036.09;5073574;28;21041;-58
2022/11/10 09:53:57;;;;;;;11.50;7.97;;;16.00;74.00;;;18.75;52.76;102039.56;5074285;28;20235;-58
2022/11/10 09:56:32;;;;;;;9.80;6.60;;;16.10;73.90;;;18.75;52.82;102039.56;5076372;28;20195;-57
2022/11/10 09:58:59;;;;;;;13.90;7.13;;;16.10;74.10;;;19.01;52.90;102038.88;5082356;28;20322;-58
2022/11/10 10:01:44;;;;;;;11.73;6.60;;;16.10;74.50;;;19.17;52.31;102036.69;5077181;28;20223;-55
2022/11/10 10:04:51;;;;;;;11.77;6.47;;;16.30;74.30;;;19.26;51.55;102040.00;5087149;28;20254;-54
2022/11/10 10:07:27;;;;;;;14.07;6.77;;;16.40;73.70;;;19.39;51.73;102027.56;5079819;28;20228;-58
2022/11/10 10:10:07;;;;;;;12.40;6.70;;;16.50;73.20;;;19.49;51.27;102040.53;5077803;28;20228;-58
2022/11/10 10:13:05;;;;;;;15.00;7.80;;;16.50;72.60;;;19.46;50.83;102041.78;5081331;28;20235;-57
2022/11/10 10:15:48;;;;;;;13.53;6.20;;;16.60;72.00;;;19.62;50.42;102040.56;5073112;28;20680;-56
2022/11/10 10:18:30;;;;;;;13.23;5.83;;;16.70;72.10;;;19.81;50.78;102038.97;5081613;28;20227;-57
2022/11/10 10:21:19;;;;;;;11.80;6.90;;;16.80;72.40;;;19.90;49.71;102043.91;5080711;28;20239;-58
2022/11/10 10:23:53;;;;;;;10.50;5.63;;;16.80;71.50;;;19.85;50.13;102041.03;5078934;28;20197;-58
2022/11/10 10:26:47;;;;;;;13.27;6.93;;;16.90;71.40;;;19.93;50.15;102048.03;5086020;28;20304;-59
2022/11/10 10:29:21;;;;;;;14.33;7.17;;;16.90;71.50;;;19.90;49.54;102048.44;5078907;28;20305;-58
2022/11/10 10:31:50;;;;;;;11.27;6.27;;;17.00;70.80;;;19.83;49.49;102051.09;5083349;28;20258;-57